sensor_id;sensor_type;location;lat;lon;timestamp;P1;durP1;ratioP1;P2;durP2;ratioP2
39918;SDS011;25589;51.552;13.424;2023-07-30T00:01:18;5.93;;;1.90;;
39918;SDS011;25589;51.552;13.424;2023-07-30T00:03:43;3.80;;;2.10;;
39918;SDS011;25589;51.552;13.424;2023-07-30T00:06:09;3.90;;;1.88;;
39918;SDS011;25589;51.552;13.424;2023-07-30T00:08:34;3.20;;;2.45;;
39918;SDS011;25589;51.552;13.424;2023-07-30T00:11:00;3.08;;;2.08;;
39918;SDS011;25589;51.552;13.424;2023-07-30T00:13:25;2.80;;;1.75;;
39918;SDS011;25589;51.552;13.424;2023-07-30T00:15:51;4.45;;;2.10;;
39918;SDS011;25589;51.552;13.424;2023-07-30T00:18:17;4.53;;;2.20;;
39918;SDS011;25589;51.552;13.424;2023-07-30T00:20:42;2.72;;;2.05;;
39918;SDS011;25589;51.552;13.424;2023-07-30T00:23:08;3.13;;;1.90;;
39918;SDS011;25589;51.552;13.424;2023-07-30T00:25:34;1.92;;;1.75;;
39918;SDS011;25589;51.552;13.424;2023-07-30T00:28:00;2.60;;;2.10;;
39918;SDS011;25589;51.552;13.424;2023-07-30T00:30:25;3.83;;;2.20;;
39918;SDS011;25589;51.552;13.424;2023-07-30T00:32:51;7.53;;;2.22;;
39918;SDS011;25589;51.552;13.424;2023-07-30T00:35:17;5.40;;;2.05;;
39918;SDS011;25589;51.552;13.424;2023-07-30T00:37:42;3.25;;;2.60;;
39918;SDS011;25589;51.552;13.424;2023-07-30T00:40:08;4.47;;;2.42;;
39918;SDS011;25589;51.552;13.424;2023-07-30T00:42:34;3.70;;;2.38;;
39918;SDS011;25589;51.552;13.424;2023-07-30T00:44:59;4.18;;;2.45;;
39918;SDS011;25589;51.552;13.424;2023-07-30T00:47:25;5.78;;;2.08;;
39918;SDS011;25589;51.552;13.424;2023-07-30T00:49:51;5.63;;;2.97;;
39918;SDS011;25589;51.552;13.424;2023-07-30T00:52:18;4.25;;;2.17;;
39918;SDS011;25589;51.552;13.424;2023-07-30T00:54:49;4.43;;;2.10;;
39918;SDS011;25589;51.552;13.424;2023-07-30T00:57:16;3.17;;;2.30;;
39918;SDS011;25589;51.552;13.424;2023-07-30T00:59:44;2.30;;;2.10;;
39918;SDS011;25589;51.552;13.424;2023-07-30T01:02:10;6.22;;;2.60;;
39918;SDS011;25589;51.552;13.424;2023-07-30T01:04:37;4.38;;;2.30;;
39918;SDS011;25589;51.552;13.424;2023-07-30T01:07:04;2.88;;;2.20;;
39918;SDS011;25589;51.552;13.424;2023-07-30T01:09:31;4.40;;;2.10;;
39918;SDS011;25589;51.552;13.424;2023-07-30T01:11:57;3.72;;;2.20;;
39918;SDS011;25589;51.552;13.424;2023-07-30T01:14:24;3.95;;;2.53;;
39918;SDS011;25589;51.552;13.424;2023-07-30T01:16:51;4.20;;;2.70;;
39918;SDS011;25589;51.552;13.424;2023-07-30T01:19:18;3.33;;;2.00;;
39918;SDS011;25589;51.552;13.424;2023-07-30T01:21:43;4.03;;;2.20;;
39918;SDS011;25589;51.552;13.424;2023-07-30T01:24:09;4.15;;;2.22;;
39918;SDS011;25589;51.552;13.424;2023-07-30T01:29:39;2.30;;;2.05;;
39918;SDS011;25589;51.552;13.424;2023-07-30T01:32:08;5.60;;;2.38;;
39918;SDS011;25589;51.552;13.424;2023-07-30T01:34:36;3.35;;;2.00;;
39918;SDS011;25589;51.552;13.424;2023-07-30T01:37:04;2.65;;;2.03;;
39918;SDS011;25589;51.552;13.424;2023-07-30T01:39:33;4.75;;;2.13;;
39918;SDS011;25589;51.552;13.424;2023-07-30T01:42:01;3.00;;;2.30;;
39918;SDS011;25589;51.552;13.424;2023-07-30T01:44:27;3.25;;;2.30;;
39918;SDS011;25589;51.552;13.424;2023-07-30T01:46:52;4.72;;;2.10;;
39918;SDS011;25589;51.552;13.424;2023-07-30T01:49:18;2.42;;;2.20;;
39918;SDS011;25589;51.552;13.424;2023-07-30T01:51:44;3.90;;;2.20;;
39918;SDS011;25589;51.552;13.424;2023-07-30T01:54:09;5.47;;;2.22;;
39918;SDS011;25589;51.552;13.424;2023-07-30T01:56:35;3.80;;;2.40;;
39918;SDS011;25589;51.552;13.424;2023-07-30T01:59:00;3.58;;;1.80;;
39918;SDS011;25589;51.552;13.424;2023-07-30T02:01:26;3.80;;;2.38;;
39918;SDS011;25589;51.552;13.424;2023-07-30T02:03:51;2.28;;;1.77;;
39918;SDS011;25589;51.552;13.424;2023-07-30T02:06:17;3.83;;;2.58;;
39918;SDS011;25589;51.552;13.424;2023-07-30T02:08:42;4.60;;;2.17;;
39918;SDS011;25589;51.552;13.424;2023-07-30T02:11:08;4.97;;;2.60;;
39918;SDS011;25589;51.552;13.424;2023-07-30T02:13:34;3.35;;;2.40;;
39918;SDS011;25589;51.552;13.424;2023-07-30T02:15:59;5.07;;;2.80;;
39918;SDS011;25589;51.552;13.424;2023-07-30T02:18:25;4.85;;;2.60;;
39918;SDS011;25589;51.552;13.424;2023-07-30T02:20:51;4.32;;;2.88;;
39918;SDS011;25589;51.552;13.424;2023-07-30T02:23:17;4.10;;;2.88;;
39918;SDS011;25589;51.552;13.424;2023-07-30T02:25:42;5.38;;;2.72;;
39918;SDS011;25589;51.552;13.424;2023-07-30T02:28:08;4.53;;;2.20;;
39918;SDS011;25589;51.552;13.424;2023-07-30T02:30:35;8.50;;;2.70;;
39918;SDS011;25589;51.552;13.424;2023-07-30T02:33:01;3.53;;;2.65;;
39918;SDS011;25589;51.552;13.424;2023-07-30T02:35:27;4.35;;;2.38;;
39918;SDS011;25589;51.552;13.424;2023-07-30T02:37:52;8.30;;;2.75;;
39918;SDS011;25589;51.552;13.424;2023-07-30T02:40:18;3.17;;;2.30;;
39918;SDS011;25589;51.552;13.424;2023-07-30T02:42:44;6.13;;;2.42;;
39918;SDS011;25589;51.552;13.424;2023-07-30T02:45:09;7.07;;;2.45;;
39918;SDS011;25589;51.552;13.424;2023-07-30T02:47:35;3.95;;;2.65;;
39918;SDS011;25589;51.552;13.424;2023-07-30T02:50:01;2.90;;;2.15;;
39918;SDS011;25589;51.552;13.424;2023-07-30T02:52:28;3.25;;;2.10;;
39918;SDS011;25589;51.552;13.424;2023-07-30T02:54:53;3.83;;;2.17;;
39918;SDS011;25589;51.552;13.424;2023-07-30T02:57:19;3.50;;;2.35;;
39918;SDS011;25589;51.552;13.424;2023-07-30T02:59:45;4.18;;;2.10;;
39918;SDS011;25589;51.552;13.424;2023-07-30T03:02:10;7.20;;;2.33;;
39918;SDS011;25589;51.552;13.424;2023-07-30T03:04:36;6.20;;;2.80;;
39918;SDS011;25589;51.552;13.424;2023-07-30T03:07:01;5.05;;;2.60;;
39918;SDS011;25589;51.552;13.424;2023-07-30T03:09:27;6.18;;;2.40;;
39918;SDS011;25589;51.552;13.424;2023-07-30T03:11:53;6.97;;;2.95;;
39918;SDS011;25589;51.552;13.424;2023-07-30T03:14:19;5.65;;;2.80;;
39918;SDS011;25589;51.552;13.424;2023-07-30T03:16:46;5.93;;;2.58;;
39918;SDS011;25589;51.552;13.424;2023-07-30T03:19:12;4.38;;;2.63;;
39918;SDS011;25589;51.552;13.424;2023-07-30T03:21:38;5.05;;;2.45;;
39918;SDS011;25589;51.552;13.424;2023-07-30T03:24:04;5.82;;;2.78;;
39918;SDS011;25589;51.552;13.424;2023-07-30T03:26:29;6.15;;;2.65;;
39918;SDS011;25589;51.552;13.424;2023-07-30T03:28:55;2.92;;;2.53;;
39918;SDS011;25589;51.552;13.424;2023-07-30T03:31:21;6.47;;;2.60;;
39918;SDS011;25589;51.552;13.424;2023-07-30T03:33:46;8.13;;;3.25;;
39918;SDS011;25589;51.552;13.424;2023-07-30T03:36:12;4.43;;;2.72;;
39918;SDS011;25589;51.552;13.424;2023-07-30T03:38:38;7.57;;;3.00;;
39918;SDS011;25589;51.552;13.424;2023-07-30T03:41:05;6.75;;;3.20;;
39918;SDS011;25589;51.552;13.424;2023-07-30T03:43:31;6.05;;;2.75;;
39918;SDS011;25589;51.552;13.424;2023-07-30T03:45:57;6.22;;;2.80;;
39918;SDS011;25589;51.552;13.424;2023-07-30T03:48:23;11.80;;;3.10;;
39918;SDS011;25589;51.552;13.424;2023-07-30T03:50:49;6.47;;;2.67;;
39918;SDS011;25589;51.552;13.424;2023-07-30T03:53:14;8.10;;;2.88;;
39918;SDS011;25589;51.552;13.424;2023-07-30T03:55:40;5.20;;;3.00;;
39918;SDS011;25589;51.552;13.424;2023-07-30T03:58:06;6.32;;;2.10;;
39918;SDS011;25589;51.552;13.424;2023-07-30T04:00:32;4.20;;;2.60;;
39918;SDS011;25589;51.552;13.424;2023-07-30T04:02:58;7.40;;;2.90;;
39918;SDS011;25589;51.552;13.424;2023-07-30T04:05:24;3.70;;;2.45;;
39918;SDS011;25589;51.552;13.424;2023-07-30T04:07:49;9.30;;;2.90;;
39918;SDS011;25589;51.552;13.424;2023-07-30T04:10:15;5.55;;;3.10;;
39918;SDS011;25589;51.552;13.424;2023-07-30T04:12:40;6.70;;;2.40;;
39918;SDS011;25589;51.552;13.424;2023-07-30T04:15:06;8.45;;;2.90;;
39918;SDS011;25589;51.552;13.424;2023-07-30T04:17:32;4.43;;;2.60;;
39918;SDS011;25589;51.552;13.424;2023-07-30T04:19:58;6.70;;;2.60;;
39918;SDS011;25589;51.552;13.424;2023-07-30T04:22:24;6.72;;;2.53;;
39918;SDS011;25589;51.552;13.424;2023-07-30T04:24:50;5.63;;;2.95;;
39918;SDS011;25589;51.552;13.424;2023-07-30T04:27:15;5.43;;;2.85;;
39918;SDS011;25589;51.552;13.424;2023-07-30T04:29:41;5.80;;;3.10;;
39918;SDS011;25589;51.552;13.424;2023-07-30T04:32:06;4.55;;;2.60;;
39918;SDS011;25589;51.552;13.424;2023-07-30T04:34:32;4.88;;;2.30;;
39918;SDS011;25589;51.552;13.424;2023-07-30T04:36:58;3.92;;;2.60;;
39918;SDS011;25589;51.552;13.424;2023-07-30T04:39:24;5.05;;;2.58;;
39918;SDS011;25589;51.552;13.424;2023-07-30T04:41:50;6.90;;;2.50;;
39918;SDS011;25589;51.552;13.424;2023-07-30T04:44:16;4.95;;;2.90;;
39918;SDS011;25589;51.552;13.424;2023-07-30T04:46:41;4.22;;;2.60;;
39918;SDS011;25589;51.552;13.424;2023-07-30T04:49:07;5.88;;;2.55;;
39918;SDS011;25589;51.552;13.424;2023-07-30T04:51:32;4.32;;;2.47;;
39918;SDS011;25589;51.552;13.424;2023-07-30T04:53:58;5.15;;;2.70;;
39918;SDS011;25589;51.552;13.424;2023-07-30T04:56:23;7.95;;;2.90;;
39918;SDS011;25589;51.552;13.424;2023-07-30T04:58:51;5.43;;;2.92;;
39918;SDS011;25589;51.552;13.424;2023-07-30T05:01:17;5.05;;;2.95;;
39918;SDS011;25589;51.552;13.424;2023-07-30T05:03:43;5.03;;;2.65;;
39918;SDS011;25589;51.552;13.424;2023-07-30T05:06:08;5.55;;;2.50;;
39918;SDS011;25589;51.552;13.424;2023-07-30T05:08:34;3.47;;;2.42;;
39918;SDS011;25589;51.552;13.424;2023-07-30T05:10:59;3.90;;;2.67;;
39918;SDS011;25589;51.552;13.424;2023-07-30T05:13:25;5.05;;;2.47;;
39918;SDS011;25589;51.552;13.424;2023-07-30T05:15:50;3.70;;;2.50;;
39918;SDS011;25589;51.552;13.424;2023-07-30T05:18:16;5.32;;;2.60;;
39918;SDS011;25589;51.552;13.424;2023-07-30T05:20:41;6.20;;;3.22;;
39918;SDS011;25589;51.552;13.424;2023-07-30T05:23:07;3.80;;;2.53;;
39918;SDS011;25589;51.552;13.424;2023-07-30T05:25:32;4.72;;;2.65;;
39918;SDS011;25589;51.552;13.424;2023-07-30T05:27:58;6.32;;;3.33;;
39918;SDS011;25589;51.552;13.424;2023-07-30T05:30:23;9.05;;;2.58;;
39918;SDS011;25589;51.552;13.424;2023-07-30T05:32:49;7.18;;;2.60;;
39918;SDS011;25589;51.552;13.424;2023-07-30T05:35:14;3.88;;;2.60;;
39918;SDS011;25589;51.552;13.424;2023-07-30T05:37:40;7.45;;;3.00;;
39918;SDS011;25589;51.552;13.424;2023-07-30T05:40:06;5.05;;;2.58;;
39918;SDS011;25589;51.552;13.424;2023-07-30T05:42:32;8.32;;;3.10;;
39918;SDS011;25589;51.552;13.424;2023-07-30T05:44:57;4.25;;;2.78;;
39918;SDS011;25589;51.552;13.424;2023-07-30T05:47:23;3.50;;;2.70;;
39918;SDS011;25589;51.552;13.424;2023-07-30T05:49:48;4.03;;;2.83;;
39918;SDS011;25589;51.552;13.424;2023-07-30T05:52:14;6.13;;;2.63;;
39918;SDS011;25589;51.552;13.424;2023-07-30T05:54:40;6.00;;;3.20;;
39918;SDS011;25589;51.552;13.424;2023-07-30T05:57:05;6.60;;;2.63;;
39918;SDS011;25589;51.552;13.424;2023-07-30T05:59:31;4.97;;;3.00;;
39918;SDS011;25589;51.552;13.424;2023-07-30T06:02:01;5.72;;;2.67;;
39918;SDS011;25589;51.552;13.424;2023-07-30T06:04:27;6.25;;;2.67;;
39918;SDS011;25589;51.552;13.424;2023-07-30T06:06:53;6.68;;;2.63;;
39918;SDS011;25589;51.552;13.424;2023-07-30T06:09:19;11.57;;;2.88;;
39918;SDS011;25589;51.552;13.424;2023-07-30T06:11:44;4.00;;;2.67;;
39918;SDS011;25589;51.552;13.424;2023-07-30T06:14:10;4.60;;;3.15;;
39918;SDS011;25589;51.552;13.424;2023-07-30T06:16:35;6.85;;;3.30;;
39918;SDS011;25589;51.552;13.424;2023-07-30T06:19:01;4.75;;;2.97;;
39918;SDS011;25589;51.552;13.424;2023-07-30T06:21:26;7.32;;;3.08;;
39918;SDS011;25589;51.552;13.424;2023-07-30T06:23:52;4.30;;;2.75;;
39918;SDS011;25589;51.552;13.424;2023-07-30T06:26:17;6.95;;;3.30;;
39918;SDS011;25589;51.552;13.424;2023-07-30T06:28:43;4.03;;;2.85;;
39918;SDS011;25589;51.552;13.424;2023-07-30T06:31:09;3.85;;;2.78;;
39918;SDS011;25589;51.552;13.424;2023-07-30T06:33:34;8.18;;;2.80;;
39918;SDS011;25589;51.552;13.424;2023-07-30T06:36:00;4.18;;;2.90;;
39918;SDS011;25589;51.552;13.424;2023-07-30T06:38:25;5.90;;;3.13;;
39918;SDS011;25589;51.552;13.424;2023-07-30T06:40:51;5.43;;;3.45;;
39918;SDS011;25589;51.552;13.424;2023-07-30T06:43:17;6.53;;;2.85;;
39918;SDS011;25589;51.552;13.424;2023-07-30T06:45:42;8.20;;;2.88;;
39918;SDS011;25589;51.552;13.424;2023-07-30T06:48:08;6.82;;;3.08;;
39918;SDS011;25589;51.552;13.424;2023-07-30T06:50:33;5.20;;;2.72;;
39918;SDS011;25589;51.552;13.424;2023-07-30T06:52:59;6.93;;;3.15;;
39918;SDS011;25589;51.552;13.424;2023-07-30T06:55:24;4.75;;;3.13;;
39918;SDS011;25589;51.552;13.424;2023-07-30T06:57:50;6.78;;;3.10;;
39918;SDS011;25589;51.552;13.424;2023-07-30T07:00:15;7.35;;;3.60;;
39918;SDS011;25589;51.552;13.424;2023-07-30T07:02:47;5.13;;;3.10;;
39918;SDS011;25589;51.552;13.424;2023-07-30T07:05:13;6.97;;;3.33;;
39918;SDS011;25589;51.552;13.424;2023-07-30T07:07:39;6.05;;;3.22;;
39918;SDS011;25589;51.552;13.424;2023-07-30T07:10:05;4.13;;;3.33;;
39918;SDS011;25589;51.552;13.424;2023-07-30T07:12:31;7.65;;;3.25;;
39918;SDS011;25589;51.552;13.424;2023-07-30T07:14:56;5.40;;;3.35;;
39918;SDS011;25589;51.552;13.424;2023-07-30T07:17:26;5.93;;;2.85;;
39918;SDS011;25589;51.552;13.424;2023-07-30T07:19:51;3.47;;;2.47;;
39918;SDS011;25589;51.552;13.424;2023-07-30T07:22:17;4.18;;;2.47;;
39918;SDS011;25589;51.552;13.424;2023-07-30T07:24:43;5.93;;;3.10;;
39918;SDS011;25589;51.552;13.424;2023-07-30T07:27:09;5.60;;;2.90;;
39918;SDS011;25589;51.552;13.424;2023-07-30T07:29:35;5.97;;;2.97;;
39918;SDS011;25589;51.552;13.424;2023-07-30T07:32:01;3.97;;;2.80;;
39918;SDS011;25589;51.552;13.424;2023-07-30T07:34:26;4.35;;;2.70;;
39918;SDS011;25589;51.552;13.424;2023-07-30T07:36:52;4.05;;;3.05;;
39918;SDS011;25589;51.552;13.424;2023-07-30T07:39:17;5.18;;;2.70;;
39918;SDS011;25589;51.552;13.424;2023-07-30T07:41:43;2.90;;;2.47;;
39918;SDS011;25589;51.552;13.424;2023-07-30T07:44:09;5.10;;;2.53;;
39918;SDS011;25589;51.552;13.424;2023-07-30T07:46:34;3.80;;;2.40;;
39918;SDS011;25589;51.552;13.424;2023-07-30T07:49:00;4.68;;;2.85;;
39918;SDS011;25589;51.552;13.424;2023-07-30T07:51:26;7.30;;;2.80;;
39918;SDS011;25589;51.552;13.424;2023-07-30T07:53:51;2.75;;;2.47;;
39918;SDS011;25589;51.552;13.424;2023-07-30T07:56:17;2.88;;;2.50;;
39918;SDS011;25589;51.552;13.424;2023-07-30T07:58:43;2.63;;;2.30;;
39918;SDS011;25589;51.552;13.424;2023-07-30T08:01:08;5.63;;;2.65;;
39918;SDS011;25589;51.552;13.424;2023-07-30T08:03:34;3.13;;;2.30;;
39918;SDS011;25589;51.552;13.424;2023-07-30T08:06:00;4.68;;;3.28;;
39918;SDS011;25589;51.552;13.424;2023-07-30T08:08:26;4.22;;;3.08;;
39918;SDS011;25589;51.552;13.424;2023-07-30T08:10:52;4.35;;;2.60;;
39918;SDS011;25589;51.552;13.424;2023-07-30T08:13:18;3.45;;;2.97;;
39918;SDS011;25589;51.552;13.424;2023-07-30T08:15:43;5.20;;;3.08;;
39918;SDS011;25589;51.552;13.424;2023-07-30T08:18:09;3.45;;;2.65;;
39918;SDS011;25589;51.552;13.424;2023-07-30T08:20:35;4.30;;;2.72;;
39918;SDS011;25589;51.552;13.424;2023-07-30T08:23:01;4.40;;;2.72;;
39918;SDS011;25589;51.552;13.424;2023-07-30T08:25:26;4.53;;;2.58;;
39918;SDS011;25589;51.552;13.424;2023-07-30T08:27:52;3.20;;;2.45;;
39918;SDS011;25589;51.552;13.424;2023-07-30T08:30:18;2.95;;;2.50;;
39918;SDS011;25589;51.552;13.424;2023-07-30T08:32:43;2.83;;;2.53;;
39918;SDS011;25589;51.552;13.424;2023-07-30T08:35:09;3.85;;;2.40;;
39918;SDS011;25589;51.552;13.424;2023-07-30T08:37:35;2.40;;;2.20;;
39918;SDS011;25589;51.552;13.424;2023-07-30T08:40:01;2.95;;;2.25;;
39918;SDS011;25589;51.552;13.424;2023-07-30T08:42:28;2.88;;;2.58;;
39918;SDS011;25589;51.552;13.424;2023-07-30T08:44:54;3.70;;;2.65;;
39918;SDS011;25589;51.552;13.424;2023-07-30T08:47:19;3.65;;;2.40;;
39918;SDS011;25589;51.552;13.424;2023-07-30T08:49:45;3.33;;;2.38;;
39918;SDS011;25589;51.552;13.424;2023-07-30T08:52:10;3.55;;;2.60;;
39918;SDS011;25589;51.552;13.424;2023-07-30T08:54:37;2.22;;;2.03;;
39918;SDS011;25589;51.552;13.424;2023-07-30T08:57:04;3.17;;;2.63;;
39918;SDS011;25589;51.552;13.424;2023-07-30T08:59:31;3.22;;;2.08;;
39918;SDS011;25589;51.552;13.424;2023-07-30T09:02:02;2.67;;;2.30;;
39918;SDS011;25589;51.552;13.424;2023-07-30T09:04:29;3.35;;;2.40;;
39918;SDS011;25589;51.552;13.424;2023-07-30T09:06:59;3.78;;;2.60;;
39918;SDS011;25589;51.552;13.424;2023-07-30T09:09:25;2.17;;;1.98;;
39918;SDS011;25589;51.552;13.424;2023-07-30T09:11:51;4.40;;;2.10;;
39918;SDS011;25589;51.552;13.424;2023-07-30T09:14:19;2.33;;;1.83;;
39918;SDS011;25589;51.552;13.424;2023-07-30T09:16:46;2.47;;;2.17;;
39918;SDS011;25589;51.552;13.424;2023-07-30T09:19:16;2.60;;;2.40;;
39918;SDS011;25589;51.552;13.424;2023-07-30T09:21:42;5.25;;;1.98;;
39918;SDS011;25589;51.552;13.424;2023-07-30T09:24:08;2.13;;;1.90;;
39918;SDS011;25589;51.552;13.424;2023-07-30T09:26:44;2.97;;;2.33;;
39918;SDS011;25589;51.552;13.424;2023-07-30T09:29:11;2.92;;;2.10;;
39918;SDS011;25589;51.552;13.424;2023-07-30T09:31:47;2.42;;;1.88;;
39918;SDS011;25589;51.552;13.424;2023-07-30T09:34:16;3.58;;;2.10;;
39918;SDS011;25589;51.552;13.424;2023-07-30T09:36:45;2.72;;;2.13;;
39918;SDS011;25589;51.552;13.424;2023-07-30T09:39:19;2.55;;;2.35;;
39918;SDS011;25589;51.552;13.424;2023-07-30T09:41:47;4.13;;;2.35;;
39918;SDS011;25589;51.552;13.424;2023-07-30T09:44:15;2.33;;;2.13;;
39918;SDS011;25589;51.552;13.424;2023-07-30T09:46:46;2.38;;;2.17;;
39918;SDS011;25589;51.552;13.424;2023-07-30T09:49:13;2.55;;;2.25;;
39918;SDS011;25589;51.552;13.424;2023-07-30T09:51:41;3.30;;;2.22;;
39918;SDS011;25589;51.552;13.424;2023-07-30T09:54:20;2.60;;;1.95;;
39918;SDS011;25589;51.552;13.424;2023-07-30T09:56:49;2.42;;;2.22;;
39918;SDS011;25589;51.552;13.424;2023-07-30T09:59:18;2.72;;;1.90;;
39918;SDS011;25589;51.552;13.424;2023-07-30T10:01:45;2.95;;;2.45;;
39918;SDS011;25589;51.552;13.424;2023-07-30T10:04:14;3.65;;;2.17;;
39918;SDS011;25589;51.552;13.424;2023-07-30T10:06:48;2.55;;;2.35;;
39918;SDS011;25589;51.552;13.424;2023-07-30T10:09:20;3.67;;;2.50;;
39918;SDS011;25589;51.552;13.424;2023-07-30T10:11:48;2.83;;;2.00;;
39918;SDS011;25589;51.552;13.424;2023-07-30T10:14:16;2.35;;;2.15;;
39918;SDS011;25589;51.552;13.424;2023-07-30T10:16:54;2.55;;;2.35;;
39918;SDS011;25589;51.552;13.424;2023-07-30T10:19:27;3.65;;;2.10;;
39918;SDS011;25589;51.552;13.424;2023-07-30T10:21:57;4.28;;;2.33;;
39918;SDS011;25589;51.552;13.424;2023-07-30T10:24:59;4.65;;;2.58;;
39918;SDS011;25589;51.552;13.424;2023-07-30T10:27:35;2.72;;;2.45;;
39918;SDS011;25589;51.552;13.424;2023-07-30T10:30:27;3.53;;;2.20;;
39918;SDS011;25589;51.552;13.424;2023-07-30T10:32:58;4.00;;;2.45;;
39918;SDS011;25589;51.552;13.424;2023-07-30T10:35:38;2.08;;;1.80;;
39918;SDS011;25589;51.552;13.424;2023-07-30T10:41:26;2.20;;;2.00;;
39918;SDS011;25589;51.552;13.424;2023-07-30T10:46:13;2.55;;;1.92;;
39918;SDS011;25589;51.552;13.424;2023-07-30T10:48:40;1.92;;;1.83;;
39918;SDS011;25589;51.552;13.424;2023-07-30T10:51:12;3.97;;;2.15;;
39918;SDS011;25589;51.552;13.424;2023-07-30T10:53:38;2.58;;;2.03;;
39918;SDS011;25589;51.552;13.424;2023-07-30T10:56:07;2.38;;;2.17;;
39918;SDS011;25589;51.552;13.424;2023-07-30T10:58:34;3.58;;;2.20;;
39918;SDS011;25589;51.552;13.424;2023-07-30T11:01:01;3.08;;;2.30;;
39918;SDS011;25589;51.552;13.424;2023-07-30T11:03:28;2.60;;;2.22;;
39918;SDS011;25589;51.552;13.424;2023-07-30T11:05:54;2.95;;;1.90;;
39918;SDS011;25589;51.552;13.424;2023-07-30T11:11:06;3.67;;;2.03;;
39918;SDS011;25589;51.552;13.424;2023-07-30T11:13:36;3.95;;;2.00;;
39918;SDS011;25589;51.552;13.424;2023-07-30T11:16:04;3.30;;;2.25;;
39918;SDS011;25589;51.552;13.424;2023-07-30T11:18:33;2.35;;;2.15;;
39918;SDS011;25589;51.552;13.424;2023-07-30T11:21:09;2.58;;;2.38;;
39918;SDS011;25589;51.552;13.424;2023-07-30T11:23:37;2.22;;;2.00;;
39918;SDS011;25589;51.552;13.424;2023-07-30T11:26:04;2.45;;;1.95;;
39918;SDS011;25589;51.552;13.424;2023-07-30T11:28:35;4.97;;;1.90;;
39918;SDS011;25589;51.552;13.424;2023-07-30T11:31:02;4.82;;;2.17;;
39918;SDS011;25589;51.552;13.424;2023-07-30T11:33:34;5.20;;;2.33;;
39918;SDS011;25589;51.552;13.424;2023-07-30T11:36:02;1.73;;;1.63;;
39918;SDS011;25589;51.552;13.424;2023-07-30T11:38:28;2.03;;;1.83;;
39918;SDS011;25589;51.552;13.424;2023-07-30T11:40:55;2.22;;;1.80;;
39918;SDS011;25589;51.552;13.424;2023-07-30T11:43:22;3.08;;;1.80;;
39918;SDS011;25589;51.552;13.424;2023-07-30T11:45:48;3.17;;;2.13;;
39918;SDS011;25589;51.552;13.424;2023-07-30T11:48:14;2.45;;;1.70;;
39918;SDS011;25589;51.552;13.424;2023-07-30T11:50:47;1.60;;;1.50;;
39918;SDS011;25589;51.552;13.424;2023-07-30T11:53:13;3.95;;;1.80;;
39918;SDS011;25589;51.552;13.424;2023-07-30T11:55:40;2.00;;;1.73;;
39918;SDS011;25589;51.552;13.424;2023-07-30T11:58:07;3.15;;;1.45;;
39918;SDS011;25589;51.552;13.424;2023-07-30T12:00:33;4.47;;;1.88;;
39918;SDS011;25589;51.552;13.424;2023-07-30T12:03:02;3.90;;;1.38;;
39918;SDS011;25589;51.552;13.424;2023-07-30T12:05:33;2.45;;;1.77;;
39918;SDS011;25589;51.552;13.424;2023-07-30T12:08:03;2.95;;;1.35;;
39918;SDS011;25589;51.552;13.424;2023-07-30T12:10:47;2.20;;;1.77;;
39918;SDS011;25589;51.552;13.424;2023-07-30T12:13:18;1.65;;;1.52;;
39918;SDS011;25589;51.552;13.424;2023-07-30T12:15:53;3.53;;;1.70;;
39918;SDS011;25589;51.552;13.424;2023-07-30T12:18:20;5.03;;;1.70;;
39918;SDS011;25589;51.552;13.424;2023-07-30T12:20:48;2.53;;;1.63;;
39918;SDS011;25589;51.552;13.424;2023-07-30T12:23:15;2.83;;;1.67;;
39918;SDS011;25589;51.552;13.424;2023-07-30T12:25:41;1.65;;;1.50;;
39918;SDS011;25589;51.552;13.424;2023-07-30T12:28:07;2.28;;;1.58;;
39918;SDS011;25589;51.552;13.424;2023-07-30T12:30:32;2.13;;;1.65;;
39918;SDS011;25589;51.552;13.424;2023-07-30T12:32:58;2.22;;;1.65;;
39918;SDS011;25589;51.552;13.424;2023-07-30T12:35:24;2.55;;;2.08;;
39918;SDS011;25589;51.552;13.424;2023-07-30T12:37:49;1.73;;;1.30;;
39918;SDS011;25589;51.552;13.424;2023-07-30T12:40:15;2.45;;;1.73;;
39918;SDS011;25589;51.552;13.424;2023-07-30T12:42:41;2.92;;;1.65;;
39918;SDS011;25589;51.552;13.424;2023-07-30T12:45:07;2.85;;;1.27;;
39918;SDS011;25589;51.552;13.424;2023-07-30T12:47:33;2.17;;;1.50;;
39918;SDS011;25589;51.552;13.424;2023-07-30T12:50:00;2.25;;;1.35;;
39918;SDS011;25589;51.552;13.424;2023-07-30T12:52:26;1.40;;;1.27;;
39918;SDS011;25589;51.552;13.424;2023-07-30T12:54:52;2.60;;;1.10;;
39918;SDS011;25589;51.552;13.424;2023-07-30T12:57:18;3.72;;;1.50;;
39918;SDS011;25589;51.552;13.424;2023-07-30T12:59:43;1.33;;;1.20;;
39918;SDS011;25589;51.552;13.424;2023-07-30T13:02:09;1.45;;;1.30;;
39918;SDS011;25589;51.552;13.424;2023-07-30T13:04:34;5.20;;;1.50;;
39918;SDS011;25589;51.552;13.424;2023-07-30T13:07:00;1.60;;;1.50;;
39918;SDS011;25589;51.552;13.424;2023-07-30T13:09:27;1.67;;;1.48;;
39918;SDS011;25589;51.552;13.424;2023-07-30T13:11:53;1.40;;;1.30;;
39918;SDS011;25589;51.552;13.424;2023-07-30T13:14:19;2.80;;;1.42;;
39918;SDS011;25589;51.552;13.424;2023-07-30T13:16:44;1.55;;;1.40;;
39918;SDS011;25589;51.552;13.424;2023-07-30T13:19:10;2.60;;;1.45;;
39918;SDS011;25589;51.552;13.424;2023-07-30T13:21:35;1.48;;;1.27;;
39918;SDS011;25589;51.552;13.424;2023-07-30T13:24:02;2.22;;;1.42;;
39918;SDS011;25589;51.552;13.424;2023-07-30T13:26:27;2.65;;;1.20;;
39918;SDS011;25589;51.552;13.424;2023-07-30T13:28:53;1.70;;;1.52;;
39918;SDS011;25589;51.552;13.424;2023-07-30T13:31:18;2.65;;;1.52;;
39918;SDS011;25589;51.552;13.424;2023-07-30T13:33:44;1.30;;;1.20;;
39918;SDS011;25589;51.552;13.424;2023-07-30T13:36:12;1.40;;;1.30;;
39918;SDS011;25589;51.552;13.424;2023-07-30T13:38:39;1.60;;;1.15;;
39918;SDS011;25589;51.552;13.424;2023-07-30T13:41:06;1.42;;;1.30;;
39918;SDS011;25589;51.552;13.424;2023-07-30T13:43:32;1.80;;;1.10;;
39918;SDS011;25589;51.552;13.424;2023-07-30T13:45:57;2.47;;;1.27;;
39918;SDS011;25589;51.552;13.424;2023-07-30T13:48:26;1.90;;;1.38;;
39918;SDS011;25589;51.552;13.424;2023-07-30T13:50:52;2.00;;;1.10;;
39918;SDS011;25589;51.552;13.424;2023-07-30T13:53:18;1.30;;;1.10;;
39918;SDS011;25589;51.552;13.424;2023-07-30T13:55:43;2.42;;;1.60;;
39918;SDS011;25589;51.552;13.424;2023-07-30T13:58:09;1.35;;;1.25;;
39918;SDS011;25589;51.552;13.424;2023-07-30T14:00:35;1.52;;;1.10;;
39918;SDS011;25589;51.552;13.424;2023-07-30T14:03:01;2.45;;;1.17;;
39918;SDS011;25589;51.552;13.424;2023-07-30T14:05:27;2.28;;;1.65;;
39918;SDS011;25589;51.552;13.424;2023-07-30T14:07:53;1.42;;;1.33;;
39918;SDS011;25589;51.552;13.424;2023-07-30T14:10:21;1.52;;;1.42;;
39918;SDS011;25589;51.552;13.424;2023-07-30T14:12:47;4.18;;;1.85;;
39918;SDS011;25589;51.552;13.424;2023-07-30T14:15:13;4.63;;;1.90;;
39918;SDS011;25589;51.552;13.424;2023-07-30T14:17:40;1.73;;;1.38;;
39918;SDS011;25589;51.552;13.424;2023-07-30T14:20:05;7.80;;;1.70;;
39918;SDS011;25589;51.552;13.424;2023-07-30T14:22:32;7.50;;;2.03;;
39918;SDS011;25589;51.552;13.424;2023-07-30T14:24:58;4.43;;;1.80;;
39918;SDS011;25589;51.552;13.424;2023-07-30T14:27:24;4.25;;;1.70;;
39918;SDS011;25589;51.552;13.424;2023-07-30T14:29:50;8.82;;;3.05;;
39918;SDS011;25589;51.552;13.424;2023-07-30T14:32:15;5.80;;;2.40;;
39918;SDS011;25589;51.552;13.424;2023-07-30T14:34:42;3.25;;;1.95;;
39918;SDS011;25589;51.552;13.424;2023-07-30T14:37:07;3.22;;;1.88;;
39918;SDS011;25589;51.552;13.424;2023-07-30T14:39:33;3.53;;;1.85;;
39918;SDS011;25589;51.552;13.424;2023-07-30T14:41:58;8.50;;;1.83;;